createdAt,value
2017-12-13T00:01:12.180Z,96.80
2017-12-13T00:03:39.674Z,97.00
2017-12-13T00:06:06.752Z,97.20
2017-12-13T00:08:33.827Z,97.10
2017-12-13T00:11:01.460Z,97.10
2017-12-13T00:13:29.732Z,97.10
2017-12-13T00:15:58.980Z,97.00
2017-12-13T00:18:27.165Z,96.90
2017-12-13T00:20:54.872Z,97.00
2017-12-13T00:23:23.417Z,96.80
2017-12-13T00:25:50.427Z,96.80
2017-12-13T00:28:19.188Z,96.90
2017-12-13T00:30:46.374Z,96.80
2017-12-13T00:33:15.446Z,96.70
2017-12-13T00:35:45.649Z,96.60
2017-12-13T00:38:15.395Z,96.60
2017-12-13T00:40:43.265Z,96.40
2017-12-13T00:43:10.591Z,96.30
2017-12-13T00:45:37.739Z,96.40
2017-12-13T00:48:04.600Z,96.40
2017-12-13T00:50:34.023Z,96.40
2017-12-13T00:53:00.944Z,96.40
2017-12-13T00:55:28.256Z,96.30
2017-12-13T00:57:55.504Z,96.30
2017-12-13T01:00:22.363Z,96.40
2017-12-13T01:02:49.275Z,96.30
2017-12-13T01:05:16.208Z,96.30
2017-12-13T01:07:43.051Z,96.20
2017-12-13T01:10:09.976Z,96.20
2017-12-13T01:12:36.841Z,96.30
2017-12-13T01:15:03.767Z,96.50
2017-12-13T01:17:30.697Z,96.70
2017-12-13T01:19:57.607Z,96.60
2017-12-13T01:22:24.519Z,96.60
2017-12-13T01:24:51.428Z,96.70
2017-12-13T01:27:19.063Z,96.50
2017-12-13T01:29:45.915Z,96.50
2017-12-13T01:32:12.853Z,96.60
2017-12-13T01:34:39.712Z,96.40
2017-12-13T01:37:06.695Z,96.40
2017-12-13T01:39:33.549Z,96.20
2017-12-13T01:42:00.473Z,96.20
2017-12-13T01:44:27.391Z,96.30
2017-12-13T01:46:54.992Z,96.50
2017-12-13T01:49:21.960Z,96.30
2017-12-13T01:51:48.860Z,96.00
2017-12-13T01:54:16.579Z,96.10
2017-12-13T01:56:43.544Z,96.10
2017-12-13T01:59:10.398Z,96.30
2017-12-13T02:01:39.106Z,96.40
2017-12-13T02:04:07.181Z,96.10
2017-12-13T02:06:35.151Z,96.10
2017-12-13T02:09:03.120Z,96.20
2017-12-13T02:11:31.401Z,96.10
2017-12-13T02:14:00.087Z,96.60
2017-12-13T02:16:28.156Z,96.60
2017-12-13T02:18:56.921Z,96.60
2017-12-13T02:21:25.235Z,96.90
2017-12-13T02:23:53.144Z,96.60
2017-12-13T02:26:21.172Z,97.00
2017-12-13T02:28:49.184Z,97.00
2017-12-13T02:31:17.207Z,97.10
2017-12-13T02:33:45.965Z,97.00
2017-12-13T02:36:13.460Z,97.00
2017-12-13T02:38:42.117Z,97.20
2017-12-13T02:41:08.964Z,97.20
2017-12-13T02:43:35.883Z,97.30
2017-12-13T02:46:02.732Z,97.50
2017-12-13T02:48:29.652Z,97.50
2017-12-13T02:50:56.514Z,97.50
2017-12-13T02:53:23.430Z,97.70
2017-12-13T02:55:50.452Z,97.70
2017-12-13T02:58:17.398Z,97.80
2017-12-13T03:00:45.091Z,97.70
2017-12-13T03:03:11.959Z,97.70
2017-12-13T03:05:38.849Z,97.60
2017-12-13T03:08:06.579Z,97.50
2017-12-13T03:10:33.544Z,97.50
2017-12-13T03:13:00.460Z,97.20
2017-12-13T03:15:27.313Z,97.00
2017-12-13T03:17:54.228Z,96.80
2017-12-13T03:20:21.246Z,96.60
2017-12-13T03:22:48.861Z,96.50
2017-12-13T03:25:15.816Z,96.50
2017-12-13T03:27:42.667Z,96.60
2017-12-13T03:30:09.611Z,96.60
2017-12-13T03:32:36.488Z,96.70
2017-12-13T03:35:05.973Z,96.40
2017-12-13T03:37:34.564Z,96.40
2017-12-13T03:40:01.446Z,96.30
2017-12-13T03:42:28.383Z,96.30
2017-12-13T03:44:55.308Z,96.40
2017-12-13T03:47:22.920Z,96.50
2017-12-13T03:49:49.866Z,96.40
2017-12-13T03:52:16.732Z,96.20
2017-12-13T03:54:43.588Z,96.40
2017-12-13T03:57:10.515Z,96.40
2017-12-13T03:59:37.444Z,96.20
2017-12-13T04:02:04.306Z,96.30
2017-12-13T04:04:32.372Z,96.30
2017-12-13T04:06:59.358Z,96.20
2017-12-13T04:09:26.437Z,96.20
2017-12-13T04:11:53.415Z,96.30
2017-12-13T04:14:20.508Z,96.20
2017-12-13T04:16:48.418Z,96.40
2017-12-13T04:19:15.355Z,96.30
2017-12-13T04:21:42.415Z,96.40
2017-12-13T04:24:09.424Z,96.50
2017-12-13T04:26:36.439Z,96.50
2017-12-13T04:29:03.514Z,96.60
2017-12-13T04:31:30.480Z,96.50
2017-12-13T04:33:58.247Z,96.40
2017-12-13T04:36:25.372Z,96.40
2017-12-13T04:38:52.259Z,96.30
2017-12-13T04:41:19.208Z,96.30
2017-12-13T04:43:46.148Z,96.00
2017-12-13T04:46:13.152Z,96.00
2017-12-13T04:48:40.224Z,95.80
2017-12-13T04:51:07.200Z,95.80
2017-12-13T04:53:34.256Z,95.80
2017-12-13T04:56:01.108Z,95.90
2017-12-13T04:58:28.036Z,95.80
2017-12-13T05:00:55.415Z,95.50
2017-12-13T05:03:22.332Z,95.50
2017-12-13T05:05:49.283Z,95.40
2017-12-13T05:08:16.216Z,95.10
2017-12-13T05:10:43.236Z,95.10
2017-12-13T05:13:10.277Z,95.20
2017-12-13T05:15:37.151Z,95.00
2017-12-13T05:18:04.803Z,95.00
2017-12-13T05:20:31.739Z,95.00
2017-12-13T05:22:58.681Z,95.00
2017-12-13T05:25:26.679Z,94.70
2017-12-13T05:28:07.112Z,94.70
2017-12-13T05:30:34.807Z,94.70
2017-12-13T05:33:01.662Z,94.70
2017-12-13T05:35:28.766Z,94.80
2017-12-13T05:37:55.687Z,94.70
2017-12-13T05:40:25.374Z,94.70
2017-12-13T05:42:54.234Z,94.90
2017-12-13T05:45:21.268Z,94.80
2017-12-13T05:47:48.191Z,94.70
2017-12-13T05:50:16.999Z,94.50
2017-12-13T05:52:44.101Z,94.20
2017-12-13T05:55:10.956Z,94.10
2017-12-13T05:57:37.812Z,94.00
2017-12-13T06:00:07.456Z,94.00
2017-12-13T06:02:34.308Z,94.10
2017-12-13T06:05:01.996Z,94.00
2017-12-13T06:07:31.913Z,93.80
2017-12-13T06:09:59.675Z,93.70
2017-12-13T06:12:33.751Z,93.70
2017-12-13T06:15:04.450Z,93.70
2017-12-13T06:17:39.274Z,93.90
2017-12-13T06:20:12.387Z,94.00
2017-12-13T06:22:43.129Z,94.10
2017-12-13T06:25:18.857Z,94.10
2017-12-13T06:27:46.531Z,94.10
2017-12-13T06:30:13.560Z,94.10
2017-12-13T06:32:41.540Z,94.30
2017-12-13T06:35:14.940Z,94.20
2017-12-13T06:37:49.264Z,94.10
2017-12-13T06:40:17.071Z,94.10
2017-12-13T06:42:44.509Z,94.20
2017-12-13T06:45:11.704Z,94.30
2017-12-13T06:47:51.314Z,94.20
2017-12-13T06:50:24.904Z,94.10
2017-12-13T06:52:59.558Z,94.10
2017-12-13T06:55:32.309Z,94.20
2017-12-13T06:58:07.013Z,94.40
2017-12-13T07:00:42.367Z,94.30
2017-12-13T07:03:11.139Z,94.20
2017-12-13T07:05:38.645Z,94.20
2017-12-13T07:08:21.385Z,94.00
2017-12-13T07:11:00.585Z,93.90
2017-12-13T07:13:33.277Z,93.90
2017-12-13T07:16:01.066Z,94.00
2017-12-13T07:18:29.072Z,93.80
2017-12-13T07:21:05.308Z,93.80
2017-12-13T07:23:45.267Z,93.50
2017-12-13T07:26:13.283Z,93.30
2017-12-13T07:28:40.348Z,93.30
2017-12-13T07:31:07.398Z,93.20
2017-12-13T07:33:34.552Z,93.10
2017-12-13T07:36:01.733Z,92.80
2017-12-13T07:38:29.070Z,92.70
2017-12-13T07:40:56.978Z,92.60
2017-12-13T07:43:23.898Z,92.60
2017-12-13T07:45:51.592Z,92.30
2017-12-13T07:48:20.631Z,92.30
2017-12-13T07:50:53.260Z,92.40
2017-12-13T07:53:26.379Z,92.40
2017-12-13T07:56:03.115Z,92.40
2017-12-13T07:58:30.365Z,92.20
2017-12-13T08:01:00.945Z,92.00
2017-12-13T08:03:27.943Z,91.90
2017-12-13T08:05:55.657Z,92.00
2017-12-13T08:08:23.520Z,91.80
2017-12-13T08:10:51.878Z,91.80
2017-12-13T08:13:18.928Z,91.70
2017-12-13T08:15:45.988Z,91.70
2017-12-13T08:18:13.455Z,91.40
2017-12-13T08:20:41.245Z,91.50
2017-12-13T08:23:09.569Z,91.20
2017-12-13T08:25:39.605Z,91.20
2017-12-13T08:28:17.346Z,91.10
2017-12-13T08:30:54.569Z,91.00
2017-12-13T08:33:30.586Z,91.00
2017-12-13T08:35:59.289Z,91.00
2017-12-13T08:38:35.129Z,91.00
2017-12-13T08:41:17.682Z,91.30
2017-12-13T08:43:45.062Z,90.90
2017-12-13T08:46:12.160Z,90.90
2017-12-13T08:48:39.267Z,90.70
2017-12-13T08:51:07.135Z,90.90
2017-12-13T08:53:44.016Z,90.50
2017-12-13T08:56:13.874Z,90.20
2017-12-13T08:58:47.897Z,90.50
2017-12-13T09:01:27.420Z,90.30
2017-12-13T09:04:10.614Z,89.90
2017-12-13T09:06:46.189Z,90.20
2017-12-13T09:09:18.914Z,90.10
2017-12-13T09:11:53.369Z,89.60
2017-12-13T09:14:37.843Z,87.60
2017-12-13T09:17:05.919Z,86.70
2017-12-13T09:19:32.869Z,85.30
2017-12-13T09:21:59.964Z,86.20
2017-12-13T09:24:27.006Z,85.60
2017-12-13T09:26:54.064Z,85.00
2017-12-13T09:29:33.594Z,84.70
2017-12-13T09:32:01.617Z,85.30
2017-12-13T09:34:29.753Z,83.30
2017-12-13T09:36:56.868Z,83.30
2017-12-13T09:39:23.884Z,83.70
2017-12-13T09:41:50.994Z,81.90
2017-12-13T09:44:17.896Z,81.50
2017-12-13T09:46:45.754Z,80.50
2017-12-13T09:49:13.578Z,80.60
2017-12-13T09:51:40.595Z,80.60
2017-12-13T09:54:07.580Z,80.00
2017-12-13T09:56:34.632Z,80.20
2017-12-13T09:59:01.655Z,79.50
2017-12-13T10:01:28.663Z,78.00
2017-12-13T10:03:55.819Z,77.70
2017-12-13T10:06:27.505Z,79.00
2017-12-13T10:08:54.532Z,77.50
2017-12-13T10:11:21.659Z,77.40
2017-12-13T10:13:48.684Z,78.20
2017-12-13T10:16:15.868Z,76.30
2017-12-13T10:18:43.746Z,77.70
2017-12-13T10:21:11.739Z,78.20
2017-12-13T10:23:56.487Z,78.00
2017-12-13T10:26:36.130Z,78.70
2017-12-13T10:29:04.109Z,78.70
2017-12-13T10:31:46.244Z,77.70
2017-12-13T10:34:14.182Z,77.70
2017-12-13T10:36:41.221Z,77.40
2017-12-13T10:39:08.316Z,78.10
2017-12-13T10:41:35.270Z,77.80
2017-12-13T10:44:02.275Z,77.90
2017-12-13T10:46:38.993Z,78.40
2017-12-13T10:49:06.638Z,77.90
2017-12-13T10:51:33.686Z,78.00
2017-12-13T10:54:00.763Z,78.30
2017-12-13T10:56:27.987Z,78.30
2017-12-13T10:58:57.472Z,78.30
2017-12-13T11:01:25.635Z,78.80
2017-12-13T11:03:53.545Z,79.30
2017-12-13T11:06:22.217Z,79.30
2017-12-13T11:08:50.092Z,79.30
2017-12-13T11:11:17.105Z,81.50
2017-12-13T11:13:44.827Z,81.10
2017-12-13T11:16:11.856Z,80.90
2017-12-13T11:18:38.879Z,81.10
2017-12-13T11:21:06.768Z,81.80
2017-12-13T11:23:37.378Z,82.40
2017-12-13T11:26:08.688Z,81.90
2017-12-13T11:28:35.667Z,81.50
2017-12-13T11:31:03.444Z,83.00
2017-12-13T11:33:31.641Z,82.40
2017-12-13T11:36:02.445Z,82.80
2017-12-13T11:38:31.451Z,81.80
2017-12-13T11:40:58.567Z,82.20
2017-12-13T11:43:33.615Z,83.10
2017-12-13T11:46:06.458Z,83.40
2017-12-13T11:48:34.594Z,83.80
2017-12-13T11:51:08.007Z,83.90
2017-12-13T11:53:40.735Z,83.80
2017-12-13T11:56:12.956Z,83.60
2017-12-13T11:58:49.425Z,83.90
2017-12-13T12:01:24.597Z,83.30
2017-12-13T12:04:01.543Z,83.00
2017-12-13T12:06:29.464Z,83.90
2017-12-13T12:08:56.620Z,84.50
2017-12-13T12:11:23.745Z,83.50
2017-12-13T12:13:50.705Z,84.00
2017-12-13T12:16:18.464Z,83.50
2017-12-13T12:18:45.584Z,83.80
2017-12-13T12:21:19.390Z,84.10
2017-12-13T12:23:47.182Z,84.00
2017-12-13T12:26:23.029Z,83.20
2017-12-13T12:28:53.205Z,83.40
2017-12-13T12:31:21.082Z,84.20
2017-12-13T12:33:51.579Z,85.30
2017-12-13T12:36:19.594Z,86.20
2017-12-13T12:38:53.625Z,88.80
2017-12-13T12:41:29.019Z,90.40
2017-12-13T12:44:01.157Z,90.80
2017-12-13T12:46:30.722Z,91.30
2017-12-13T12:49:00.400Z,91.30
2017-12-13T12:51:33.484Z,92.10
2017-12-13T12:54:06.235Z,91.40
2017-12-13T12:56:39.493Z,91.60
2017-12-13T12:59:06.811Z,91.60
2017-12-13T13:01:34.035Z,91.20
2017-12-13T13:04:01.731Z,91.10
2017-12-13T13:06:32.352Z,90.60
2017-12-13T13:08:59.959Z,91.30
2017-12-13T13:11:28.123Z,92.60
2017-12-13T13:13:59.073Z,92.70
2017-12-13T13:16:26.673Z,93.30
2017-12-13T13:18:53.880Z,93.50
2017-12-13T13:21:27.917Z,93.90
2017-12-13T13:23:55.128Z,94.50
2017-12-13T13:26:23.118Z,94.80
2017-12-13T13:28:50.341Z,94.80
2017-12-13T13:31:17.312Z,95.20
2017-12-13T13:33:44.330Z,94.90
2017-12-13T13:36:20.793Z,95.10
2017-12-13T13:38:54.038Z,96.10
2017-12-13T13:41:29.876Z,96.40
2017-12-13T13:44:12.864Z,96.60
2017-12-13T13:46:57.144Z,97.30
2017-12-13T13:49:30.371Z,97.20
2017-12-13T13:54:36.116Z,98.20
2017-12-13T13:57:03.336Z,98.50
2017-12-13T13:59:30.472Z,98.80
2017-12-13T14:01:58.489Z,99.20
2017-12-13T14:04:29.496Z,99.00
2017-12-13T14:06:57.784Z,99.10
2017-12-13T14:09:27.334Z,99.00
2017-12-13T14:12:05.233Z,99.90
2017-12-13T14:14:33.876Z,99.60
2017-12-13T14:17:06.809Z,99.90
2017-12-13T14:30:59.956Z,99.90
2017-12-13T14:33:42.294Z,99.90
2017-12-13T14:36:22.661Z,99.90
2017-12-13T14:39:06.649Z,99.90
2017-12-13T14:41:49.630Z,99.90
2017-12-13T14:44:30.175Z,99.90
2017-12-13T14:47:11.636Z,99.90
2017-12-13T14:49:50.977Z,99.90
2017-12-13T14:52:31.942Z,99.90
2017-12-13T14:55:08.598Z,99.90
2017-12-13T14:57:48.643Z,99.90
2017-12-13T15:00:24.952Z,99.90
2017-12-13T15:02:55.307Z,99.90
2017-12-13T15:05:32.943Z,99.90
2017-12-13T15:08:00.742Z,99.90
2017-12-13T15:10:28.626Z,99.90
2017-12-13T15:12:55.640Z,99.90
2017-12-13T15:15:23.428Z,99.90
2017-12-13T15:17:51.792Z,99.90
2017-12-13T15:20:19.003Z,99.90
2017-12-13T15:22:46.007Z,99.90
2017-12-13T15:25:13.868Z,99.90
2017-12-13T15:27:40.902Z,99.90
2017-12-13T15:30:08.477Z,99.90
2017-12-13T15:32:35.468Z,99.90
2017-12-13T15:35:03.986Z,99.90
2017-12-13T15:37:31.671Z,99.90
2017-12-13T15:40:05.552Z,99.90
2017-12-13T15:42:33.034Z,99.90
2017-12-13T15:45:00.296Z,99.90
2017-12-13T15:47:28.828Z,99.90
2017-12-13T15:49:56.981Z,99.90
2017-12-13T15:52:24.133Z,99.90
2017-12-13T15:54:51.463Z,99.90
2017-12-13T15:57:18.641Z,99.90
2017-12-13T15:59:57.641Z,99.90
2017-12-13T16:02:36.618Z,99.90
2017-12-13T16:05:17.933Z,99.90
2017-12-13T16:07:46.218Z,99.90
2017-12-13T16:10:15.771Z,99.90
2017-12-13T16:12:43.518Z,99.90
2017-12-13T16:15:11.326Z,99.90
2017-12-13T16:17:43.545Z,99.90
2017-12-13T16:20:23.395Z,99.90
2017-12-13T16:23:08.245Z,99.90
2017-12-13T16:25:50.866Z,99.90
2017-12-13T16:28:26.185Z,99.90
2017-12-13T16:30:56.126Z,99.90
2017-12-13T16:33:23.077Z,99.90
2017-12-13T16:35:52.024Z,99.90
2017-12-13T16:38:29.140Z,99.90
2017-12-13T16:40:59.552Z,99.90
2017-12-13T16:43:29.561Z,99.90
2017-12-13T16:46:14.253Z,99.90
2017-12-13T16:48:42.504Z,99.90
2017-12-13T16:51:19.449Z,99.90
2017-12-13T16:53:48.287Z,99.90
2017-12-13T16:56:15.868Z,99.90
2017-12-13T16:58:55.237Z,99.90
2017-12-13T17:01:24.301Z,99.90
2017-12-13T17:03:58.319Z,99.90
2017-12-13T17:06:29.050Z,99.90
2017-12-13T17:08:57.007Z,99.90
2017-12-13T17:11:24.164Z,99.90
2017-12-13T17:13:59.839Z,99.90
2017-12-13T17:16:32.203Z,99.90
2017-12-13T17:19:00.052Z,99.90
2017-12-13T17:21:31.110Z,99.90
2017-12-13T17:24:00.005Z,99.90
2017-12-13T17:26:33.193Z,99.90
2017-12-13T17:29:08.817Z,99.90
2017-12-13T17:31:38.480Z,99.90
2017-12-13T17:34:05.586Z,99.90
2017-12-13T17:36:44.568Z,99.90
2017-12-13T17:39:21.806Z,99.90
2017-12-13T17:41:57.435Z,99.90
2017-12-13T17:44:25.855Z,99.90
2017-12-13T17:47:02.712Z,99.90
2017-12-13T17:49:30.297Z,99.90
2017-12-13T17:51:57.583Z,99.90
2017-12-13T17:54:25.380Z,99.90
2017-12-13T17:56:53.281Z,99.90
2017-12-13T17:59:20.428Z,99.90
2017-12-13T18:01:47.513Z,99.90
2017-12-13T18:04:14.505Z,99.90
2017-12-13T18:06:41.608Z,99.90
2017-12-13T18:09:08.652Z,99.90
2017-12-13T18:11:35.771Z,99.90
2017-12-13T18:14:02.991Z,99.90
2017-12-13T18:16:30.203Z,99.90
2017-12-13T18:18:57.188Z,99.90
2017-12-13T18:21:24.212Z,99.90
2017-12-13T18:23:51.436Z,99.90
2017-12-13T18:26:19.332Z,99.90
2017-12-13T18:28:47.363Z,99.90
2017-12-13T18:31:14.789Z,99.90
2017-12-13T18:33:42.285Z,99.90
2017-12-13T18:36:09.589Z,99.90
2017-12-13T18:38:37.261Z,99.90
2017-12-13T18:41:04.827Z,99.90
2017-12-13T18:43:32.143Z,99.90
2017-12-13T18:46:01.368Z,99.90
2017-12-13T18:48:28.657Z,99.90
2017-12-13T18:50:56.147Z,99.90
2017-12-13T18:53:23.540Z,99.90
2017-12-13T18:55:50.488Z,99.90
2017-12-13T18:58:17.629Z,99.90
2017-12-13T19:00:44.692Z,99.90
2017-12-13T19:03:11.794Z,99.90
2017-12-13T19:05:39.941Z,99.90
2017-12-13T19:08:07.043Z,99.90
2017-12-13T19:10:34.123Z,99.90
2017-12-13T19:13:01.104Z,99.90
2017-12-13T19:15:28.070Z,99.90
2017-12-13T19:17:55.645Z,99.90
2017-12-13T19:20:22.721Z,99.90
2017-12-13T19:22:50.123Z,99.90
2017-12-13T19:25:17.181Z,99.90
2017-12-13T19:27:44.284Z,99.90
2017-12-13T19:30:12.342Z,99.90
2017-12-13T19:32:40.291Z,99.90
2017-12-13T19:35:07.617Z,99.90
2017-12-13T19:37:35.582Z,99.90
2017-12-13T19:40:03.782Z,99.90
2017-12-13T19:42:31.330Z,99.90
2017-12-13T19:44:58.655Z,99.90
2017-12-13T19:47:26.417Z,99.90
2017-12-13T19:49:53.526Z,99.90
2017-12-13T19:52:20.439Z,99.90
2017-12-13T19:54:47.524Z,99.90
2017-12-13T19:57:14.477Z,99.90
2017-12-13T19:59:41.475Z,99.90
2017-12-13T20:02:09.291Z,99.90
2017-12-13T20:04:36.221Z,99.90
2017-12-13T20:07:03.554Z,99.90
2017-12-13T20:09:30.595Z,99.90
2017-12-13T20:11:57.631Z,99.90
2017-12-13T20:14:24.487Z,99.90
2017-12-13T20:16:51.343Z,99.90
2017-12-13T20:19:18.273Z,99.90
2017-12-13T20:21:45.134Z,99.90
2017-12-13T20:24:12.852Z,99.90
2017-12-13T20:26:39.708Z,99.90
2017-12-13T20:29:06.669Z,99.90
2017-12-13T20:31:33.612Z,99.90
2017-12-13T20:34:00.566Z,99.90
2017-12-13T20:36:27.488Z,99.90
2017-12-13T20:38:54.495Z,99.90
2017-12-13T20:41:21.349Z,99.90
2017-12-13T20:43:48.236Z,99.90
2017-12-13T20:46:15.172Z,99.90
2017-12-13T20:48:42.091Z,99.90
2017-12-13T20:51:08.960Z,99.90
2017-12-13T20:53:35.919Z,99.90
2017-12-13T20:56:02.807Z,99.90
2017-12-13T20:58:30.419Z,99.90
2017-12-13T21:00:57.360Z,99.90
2017-12-13T21:03:24.255Z,99.90
2017-12-13T21:05:51.964Z,99.90
2017-12-13T21:08:18.917Z,99.90
2017-12-13T21:10:45.810Z,99.90
2017-12-13T21:13:12.772Z,99.90
2017-12-13T21:15:40.124Z,99.90
2017-12-13T21:18:07.096Z,99.90
2017-12-13T21:20:33.985Z,99.90
2017-12-13T21:23:00.906Z,99.90
2017-12-13T21:25:27.879Z,99.90
2017-12-13T21:27:54.752Z,99.90
2017-12-13T21:30:21.642Z,99.90
2017-12-13T21:32:49.044Z,99.90
2017-12-13T21:35:16.989Z,99.90
2017-12-13T21:37:44.383Z,99.90
2017-12-13T21:40:12.493Z,99.90
2017-12-13T21:42:40.601Z,99.90
2017-12-13T21:45:07.600Z,99.90
2017-12-13T21:47:34.628Z,99.90
2017-12-13T21:50:12.170Z,99.90
2017-12-13T21:52:39.848Z,99.90
2017-12-13T21:55:08.951Z,99.90
2017-12-13T21:57:37.783Z,99.90
2017-12-13T22:00:05.444Z,99.90
2017-12-13T22:02:37.950Z,99.90
2017-12-13T22:05:16.928Z,99.90
2017-12-13T22:07:55.624Z,99.90
2017-12-13T22:10:35.553Z,99.90
2017-12-13T22:13:14.786Z,99.90
2017-12-13T22:15:52.219Z,99.90
2017-12-13T22:18:19.468Z,99.90
2017-12-13T22:20:50.135Z,99.90
2017-12-13T22:23:28.868Z,99.90
2017-12-13T22:25:56.972Z,99.90
2017-12-13T22:28:25.310Z,99.90
2017-12-13T22:30:54.465Z,99.90
2017-12-13T22:33:24.590Z,99.90
2017-12-13T22:35:51.904Z,99.90
2017-12-13T22:38:21.124Z,99.90
2017-12-13T22:40:48.290Z,99.90
2017-12-13T22:43:15.785Z,99.90
2017-12-13T22:45:47.155Z,99.90
2017-12-13T22:48:14.282Z,99.90
2017-12-13T22:50:41.733Z,99.90
2017-12-13T22:53:12.944Z,99.90
2017-12-13T22:55:40.106Z,99.90
2017-12-13T22:58:07.305Z,99.90
2017-12-13T23:00:48.450Z,99.90
2017-12-13T23:03:16.792Z,99.90
2017-12-13T23:05:45.458Z,99.90
2017-12-13T23:08:14.395Z,99.90
2017-12-13T23:10:42.805Z,99.90
2017-12-13T23:13:09.864Z,99.90
2017-12-13T23:15:39.276Z,99.90
2017-12-13T23:18:15.846Z,99.90
2017-12-13T23:20:58.933Z,99.90
2017-12-13T23:23:27.016Z,99.90
2017-12-13T23:25:55.506Z,99.90
2017-12-13T23:28:24.478Z,99.90
2017-12-13T23:30:52.181Z,99.90
2017-12-13T23:33:20.732Z,99.90
2017-12-13T23:35:51.562Z,99.90
2017-12-13T23:38:18.653Z,99.90
2017-12-13T23:40:46.584Z,99.90
2017-12-13T23:43:13.748Z,99.90
2017-12-13T23:45:42.250Z,99.90
2017-12-13T23:48:12.643Z,99.90
2017-12-13T23:50:39.702Z,99.90
2017-12-13T23:53:07.770Z,99.90
2017-12-13T23:55:35.115Z,99.90
2017-12-13T23:58:02.361Z,99.90
